www.cux-wetter.de
Wetterdaten: Montag, 16.02.2015
Datum Zeit Temp. A. Feuchte A. Luftdruck Regen Wind Richtung Richtung Sonnenschein Solar Taupunkt Windchill Windben
16.02.2015 00:00 1,0 C 82 % 1019,5 hPa 0,0 l/m 13,6 km/h (3 Bft) O 85 0 min 0 W/m -1,7 C -4,9 C 13,6 km/h (3 Bft)
16.02.2015 00:15 1,3 C 82 % 1019,5 hPa 0,0 l/m 19,1 km/h (3 Bft) O-SO 110 0 min 0 W/m -1,4 C -7,5 C 19,1 km/h (3 Bft)
16.02.2015 00:30 1,5 C 82 % 1019,5 hPa 0,0 l/m 15,4 km/h (3 Bft) O-SO 115 0 min 0 W/m -1,2 C -5,4 C 15,4 km/h (3 Bft)
16.02.2015 00:45 1,5 C 82 % 1019,5 hPa 0,0 l/m 14,5 km/h (3 Bft) S-SO 150 0 min 0 W/m -1,2 C -4,9 C 14,5 km/h (3 Bft)
16.02.2015 01:00 1,6 C 82 % 1019,5 hPa 0,0 l/m 12,6 km/h (3 Bft) SO 125 0 min 0 W/m -1,1 C -3,6 C 12,6 km/h (3 Bft)
16.02.2015 01:15 1,6 C 81 % 1019,5 hPa 0,0 l/m 20,2 km/h (4 Bft) O-SO 110 0 min 0 W/m -1,3 C -7,7 C 20,2 km/h (4 Bft)
16.02.2015 01:30 1,6 C 80 % 1019,5 hPa 0,0 l/m 17,5 km/h (3 Bft) SO 140 0 min 0 W/m -1,5 C -6,4 C 17,5 km/h (3 Bft)
16.02.2015 01:45 1,6 C 80 % 1019,5 hPa 0,0 l/m 17,3 km/h (3 Bft) SO 140 0 min 0 W/m -1,5 C -6,3 C 17,3 km/h (3 Bft)
16.02.2015 02:00 1,6 C 79 % 1019,5 hPa 0,0 l/m 19,1 km/h (3 Bft) O-SO 105 0 min 0 W/m -1,6 C -7,2 C 19,1 km/h (3 Bft)
16.02.2015 02:15 1,6 C 79 % 1019,5 hPa 0,0 l/m 19,1 km/h (3 Bft) SO 130 0 min 0 W/m -1,6 C -7,2 C 19,1 km/h (3 Bft)
16.02.2015 02:30 1,6 C 79 % 1019,5 hPa 0,0 l/m 23,1 km/h (4 Bft) SO 140 0 min 0 W/m -1,6 C -8,8 C 23,1 km/h (4 Bft)
16.02.2015 02:45 1,6 C 78 % 1019,5 hPa 0,0 l/m 25,8 km/h (4 Bft) SO 140 0 min 0 W/m -1,8 C -9,8 C 25,8 km/h (4 Bft)
16.02.2015 03:00 1,5 C 78 % 1019,5 hPa 0,0 l/m 19,9 km/h (4 Bft) SO 130 0 min 0 W/m -1,9 C -7,6 C 19,9 km/h (4 Bft)
16.02.2015 03:15 1,4 C 77 % 1019,5 hPa 0,0 l/m 19,6 km/h (3 Bft) SO 140 0 min 0 W/m -2,2 C -7,6 C 19,6 km/h (3 Bft)
16.02.2015 03:30 1,4 C 77 % 1019,5 hPa 0,0 l/m 19,6 km/h (3 Bft) SO 130 0 min 0 W/m -2,2 C -7,6 C 19,6 km/h (3 Bft)
16.02.2015 03:45 1,2 C 77 % 1019,5 hPa 0,0 l/m 24,1 km/h (4 Bft) O-SO 120 0 min 0 W/m -2,4 C -9,8 C 24,1 km/h (4 Bft)
16.02.2015 04:00 1,1 C 77 % 1019,5 hPa 0,0 l/m 19,8 km/h (3 Bft) SO 135 0 min 0 W/m -2,5 C -8,1 C 19,8 km/h (3 Bft)
16.02.2015 04:15 1,2 C 78 % 1019,5 hPa 0,0 l/m 21,6 km/h (4 Bft) SO 135 0 min 0 W/m -2,2 C -8,8 C 21,6 km/h (4 Bft)
16.02.2015 04:30 1,2 C 78 % 1019,5 hPa 0,0 l/m 22,5 km/h (4 Bft) SO 140 0 min 0 W/m -2,2 C -9,1 C 22,5 km/h (4 Bft)
16.02.2015 04:45 1,2 C 78 % 1019,5 hPa 0,0 l/m 25,1 km/h (4 Bft) SO 140 0 min 0 W/m -2,2 C -10,1 C 25,1 km/h (4 Bft)
16.02.2015 05:00 1,2 C 78 % 1019,5 hPa 0,0 l/m 21,8 km/h (4 Bft) SO 140 0 min 0 W/m -2,2 C -8,9 C 21,8 km/h (4 Bft)
16.02.2015 05:15 1,2 C 78 % 1019,5 hPa 0,0 l/m 20,0 km/h (4 Bft) SO 130 0 min 0 W/m -2,2 C -8,1 C 20,0 km/h (4 Bft)
16.02.2015 05:30 1,2 C 77 % 1019,5 hPa 0,0 l/m 20,1 km/h (4 Bft) SO 125 0 min 0 W/m -2,4 C -8,1 C 20,1 km/h (4 Bft)
16.02.2015 05:45 1,1 C 77 % 1019,5 hPa 0,0 l/m 15,1 km/h (3 Bft) SO 130 0 min 0 W/m -2,5 C -5,7 C 15,1 km/h (3 Bft)
16.02.2015 06:00 1,1 C 77 % 1019,5 hPa 0,0 l/m 18,0 km/h (3 Bft) O-SO 120 0 min 0 W/m -2,5 C -7,3 C 18,0 km/h (3 Bft)
16.02.2015 06:15 1,0 C 77 % 1019,5 hPa 0,0 l/m 18,1 km/h (3 Bft) O-SO 120 0 min 0 W/m -2,6 C -7,4 C 18,1 km/h (3 Bft)
16.02.2015 06:30 1,0 C 77 % 1019,5 hPa 0,0 l/m 14,8 km/h (3 Bft) SO 125 0 min 0 W/m -2,6 C -5,7 C 14,8 km/h (3 Bft)
16.02.2015 06:45 1,1 C 77 % 1019,5 hPa 0,0 l/m 21,2 km/h (4 Bft) SO 130 0 min 0 W/m -2,5 C -8,7 C 21,2 km/h (4 Bft)
16.02.2015 07:00 1,1 C 77 % 1019,5 hPa 0,0 l/m 17,2 km/h (3 Bft) O-SO 120 0 min 0 W/m -2,5 C -6,9 C 17,2 km/h (3 Bft)
16.02.2015 07:15 1,2 C 77 % 1019,5 hPa 0,0 l/m 18,3 km/h (3 Bft) SO 135 0 min 0 W/m -2,4 C -7,3 C 18,3 km/h (3 Bft)
16.02.2015 07:30 1,4 C 77 % 1019,5 hPa 0,0 l/m 18,3 km/h (3 Bft) SO 140 0 min 0 W/m -2,2 C -7,0 C 18,3 km/h (3 Bft)
16.02.2015 07:45 1,4 C 76 % 1019,5 hPa 0,0 l/m 19,6 km/h (3 Bft) O-SO 120 0 min 0 W/m -2,4 C -7,6 C 19,6 km/h (3 Bft)
16.02.2015 08:00 1,4 C 76 % 1019,5 hPa 0,0 l/m 20,0 km/h (4 Bft) S-SO 150 0 min 0 W/m -2,4 C -7,8 C 20,0 km/h (4 Bft)
16.02.2015 08:15 1,5 C 75 % 1019,5 hPa 0,0 l/m 17,2 km/h (3 Bft) SO 130 0 min 0 W/m -2,4 C -6,4 C 17,2 km/h (3 Bft)
16.02.2015 08:30 1,5 C 74 % 1019,5 hPa 0,0 l/m 17,1 km/h (3 Bft) SO 135 0 min 0 W/m -2,6 C -6,3 C 17,1 km/h (3 Bft)
16.02.2015 08:45 1,6 C 74 % 1019,5 hPa 0,0 l/m 16,8 km/h (3 Bft) SO 145 0 min 0 W/m -2,5 C -6,0 C 16,8 km/h (3 Bft)
16.02.2015 09:00 1,7 C 73 % 1019,5 hPa 0,0 l/m 18,5 km/h (3 Bft) S-SO 160 0 min 0 W/m -2,6 C -6,7 C 18,5 km/h (3 Bft)
16.02.2015 09:15 1,8 C 73 % 1019,5 hPa 0,0 l/m 17,8 km/h (3 Bft) SO 135 0 min 0 W/m -2,5 C -6,3 C 17,8 km/h (3 Bft)
16.02.2015 09:30 2,0 C 71 % 1019,5 hPa 0,0 l/m 19,4 km/h (3 Bft) S-SO 165 0 min 0 W/m -2,7 C -6,8 C 19,4 km/h (3 Bft)
16.02.2015 09:45 2,3 C 68 % 1019,5 hPa 0,0 l/m 18,2 km/h (3 Bft) S-SO 160 0 min 0 W/m -3,0 C -5,8 C 18,2 km/h (3 Bft)
16.02.2015 10:00 2,5 C 67 % 1019,5 hPa 0,0 l/m 20,9 km/h (4 Bft) S-SO 165 0 min 0 W/m -3,0 C -6,8 C 20,9 km/h (4 Bft)
16.02.2015 10:15 2,5 C 64 % 1019,5 hPa 0,0 l/m 18,4 km/h (3 Bft) S 170 0 min 0 W/m -3,6 C -5,7 C 18,4 km/h (3 Bft)
16.02.2015 10:30 2,8 C 63 % 1019,5 hPa 0,0 l/m 22,1 km/h (4 Bft) S 180 0 min 0 W/m -3,5 C -6,9 C 22,1 km/h (4 Bft)
16.02.2015 10:45 2,7 C 58 % 1019,5 hPa 0,0 l/m 22,6 km/h (4 Bft) S 170 0 min 0 W/m -4,7 C -7,2 C 22,6 km/h (4 Bft)
16.02.2015 11:00 2,8 C 58 % 1019,5 hPa 0,0 l/m 22,0 km/h (4 Bft) S 190 0 min 0 W/m -4,6 C -6,8 C 22,0 km/h (4 Bft)
16.02.2015 11:15 3,0 C 56 % 1019,5 hPa 0,0 l/m 23,2 km/h (4 Bft) S 190 0 min 0 W/m -4,9 C -7,0 C 23,2 km/h (4 Bft)
16.02.2015 11:30 2,8 C 55 % 1019,5 hPa 0,0 l/m 27,6 km/h (5 Bft) S-SO 155 0 min 0 W/m -5,3 C -8,8 C 27,6 km/h (5 Bft)
16.02.2015 11:45 3,0 C 55 % 1019,5 hPa 0,0 l/m 20,5 km/h (4 Bft) S 180 0 min 0 W/m -5,1 C -6,0 C 20,5 km/h (4 Bft)
16.02.2015 12:00 3,1 C 53 % 1019,5 hPa 0,0 l/m 23,1 km/h (4 Bft) S 180 0 min 0 W/m -5,5 C -6,8 C 23,1 km/h (4 Bft)
16.02.2015 12:15 3,4 C 53 % 1019,5 hPa 0,0 l/m 24,5 km/h (4 Bft) S 180 0 min 0 W/m -5,3 C -6,9 C 24,5 km/h (4 Bft)
16.02.2015 12:30 3,5 C 50 % 1019,5 hPa 0,0 l/m 19,6 km/h (3 Bft) S 185 0 min 0 W/m -5,9 C -4,9 C 19,6 km/h (3 Bft)
16.02.2015 12:45 3,6 C 48 % 1019,5 hPa 0,0 l/m 21,1 km/h (4 Bft) S 180 0 min 0 W/m -6,4 C -5,4 C 21,1 km/h (4 Bft)
16.02.2015 13:00 3,7 C 47 % 1019,5 hPa 0,0 l/m 23,0 km/h (4 Bft) S 190 0 min 0 W/m -6,5 C -6,0 C 23,0 km/h (4 Bft)
16.02.2015 13:15 4,0 C 42 % 1019,5 hPa 0,0 l/m 25,3 km/h (4 Bft) S-SW 195 0 min 0 W/m -7,7 C -6,4 C 25,3 km/h (4 Bft)
16.02.2015 13:30 3,7 C 45 % 1019,5 hPa 0,0 l/m 23,7 km/h (4 Bft) S 190 0 min 0 W/m -7,1 C -6,3 C 23,7 km/h (4 Bft)
16.02.2015 13:45 3,8 C 48 % 1019,5 hPa 0,0 l/m 20,3 km/h (4 Bft) S 180 0 min 0 W/m -6,2 C -4,8 C 20,3 km/h (4 Bft)
16.02.2015 14:00 4,0 C 47 % 1018,5 hPa 0,0 l/m 20,5 km/h (4 Bft) S 185 0 min 0 W/m -6,3 C -4,7 C 20,5 km/h (4 Bft)
16.02.2015 14:15 4,1 C 45 % 1018,5 hPa 0,0 l/m 19,8 km/h (3 Bft) S 175 0 min 0 W/m -6,7 C -4,3 C 19,8 km/h (3 Bft)
16.02.2015 14:30 4,0 C 42 % 1018,5 hPa 0,0 l/m 25,3 km/h (4 Bft) S 170 0 min 0 W/m -7,7 C -6,4 C 25,3 km/h (4 Bft)
16.02.2015 14:45 3,9 C 45 % 1018,5 hPa 0,0 l/m 23,0 km/h (4 Bft) S 190 0 min 0 W/m -6,9 C -5,7 C 23,0 km/h (4 Bft)
16.02.2015 15:00 4,0 C 44 % 1018,5 hPa 0,0 l/m 24,1 km/h (4 Bft) S 170 0 min 0 W/m -7,1 C -6,0 C 24,1 km/h (4 Bft)
16.02.2015 15:15 4,0 C 43 % 1018,5 hPa 0,0 l/m 24,0 km/h (4 Bft) S 185 0 min 0 W/m -7,4 C -6,0 C 24,0 km/h (4 Bft)
16.02.2015 15:30 4,0 C 41 % 1018,5 hPa 0,0 l/m 20,7 km/h (4 Bft) S 175 0 min 0 W/m -8,0 C -4,7 C 20,7 km/h (4 Bft)
16.02.2015 15:45 3,7 C 38 % 1018,5 hPa 0,0 l/m 18,6 km/h (3 Bft) S-SW 210 0 min 0 W/m -9,3 C -4,3 C 18,6 km/h (3 Bft)
16.02.2015 16:00 3,7 C 42 % 1018,5 hPa 0,0 l/m 26,6 km/h (4 Bft) S-SW 195 0 min 0 W/m -8,0 C -7,2 C 26,6 km/h (4 Bft)
16.02.2015 16:15 3,6 C 44 % 1018,5 hPa 0,0 l/m 22,0 km/h (4 Bft) S-SW 195 0 min 0 W/m -7,5 C -5,8 C 22,0 km/h (4 Bft)
16.02.2015 16:30 3,1 C 45 % 1018,5 hPa 0,0 l/m 24,4 km/h (4 Bft) S 190 0 min 0 W/m -7,7 C -7,3 C 24,4 km/h (4 Bft)
16.02.2015 16:45 2,9 C 51 % 1018,5 hPa 0,0 l/m 27,0 km/h (5 Bft) S-SW 195 0 min 0 W/m -6,2 C -8,4 C 27,0 km/h (5 Bft)
16.02.2015 17:00 2,7 C 54 % 1018,5 hPa 0,0 l/m 20,2 km/h (4 Bft) S 190 0 min 0 W/m -5,7 C -6,2 C 20,2 km/h (4 Bft)
16.02.2015 17:15 2,3 C 57 % 1018,5 hPa 0,0 l/m 18,0 km/h (3 Bft) S 185 0 min 0 W/m -5,3 C -5,7 C 18,0 km/h (3 Bft)
16.02.2015 17:30 1,9 C 61 % 1019,5 hPa 0,0 l/m 13,6 km/h (3 Bft) S 180 0 min 0 W/m -4,8 C -3,9 C 13,6 km/h (3 Bft)
16.02.2015 17:45 1,3 C 62 % 1018,5 hPa 0,0 l/m 10,2 km/h (2 Bft) S 175 0 min 0 W/m -5,2 C -2,2 C 10,2 km/h (2 Bft)
16.02.2015 18:00 0,7 C 64 % 1019,5 hPa 0,0 l/m 6,7 km/h (2 Bft) S-SO 165 0 min 0 W/m -5,3 C 0,4 C 6,7 km/h (2 Bft)
16.02.2015 18:15 0,4 C 67 % 1019,5 hPa 0,0 l/m 8,9 km/h (2 Bft) S 170 0 min 0 W/m -5,0 C -2,1 C 8,9 km/h (2 Bft)
16.02.2015 18:30 0,2 C 68 % 1019,5 hPa 0,0 l/m 9,1 km/h (2 Bft) S 190 0 min 0 W/m -5,0 C -2,5 C 9,1 km/h (2 Bft)
16.02.2015 18:45 -0,1 C 70 % 1019,5 hPa 0,0 l/m 7,6 km/h (2 Bft) S 180 0 min 0 W/m -4,9 C -1,4 C 7,6 km/h (2 Bft)
16.02.2015 19:00 -0,3 C 70 % 1019,5 hPa 0,0 l/m 10,0 km/h (2 Bft) S 175 0 min 0 W/m -5,1 C -3,8 C 10,0 km/h (2 Bft)
16.02.2015 19:15 -0,5 C 71 % 1019,5 hPa 0,0 l/m 7,4 km/h (2 Bft) S 170 0 min 0 W/m -5,1 C -1,6 C 7,4 km/h (2 Bft)
16.02.2015 19:30 -0,4 C 73 % 1019,5 hPa 0,0 l/m 10,3 km/h (2 Bft) S 170 0 min 0 W/m -4,6 C -4,1 C 10,3 km/h (2 Bft)
16.02.2015 19:45 -0,4 C 74 % 1019,5 hPa 0,0 l/m 8,7 km/h (2 Bft) S 180 0 min 0 W/m -4,5 C -2,7 C 8,7 km/h (2 Bft)
16.02.2015 20:00 -0,4 C 75 % 1019,5 hPa 0,0 l/m 9,5 km/h (2 Bft) S 170 0 min 0 W/m -4,3 C -3,5 C 9,5 km/h (2 Bft)
16.02.2015 20:15 -0,5 C 76 % 1020,5 hPa 0,0 l/m 7,4 km/h (2 Bft) S 190 0 min 0 W/m -4,2 C -1,6 C 7,4 km/h (2 Bft)
16.02.2015 20:30 -0,4 C 77 % 1020,5 hPa 0,0 l/m 10,0 km/h (2 Bft) S 180 0 min 0 W/m -3,9 C -3,9 C 10,0 km/h (2 Bft)
16.02.2015 20:45 -0,2 C 78 % 1020,5 hPa 0,0 l/m 11,3 km/h (2 Bft) S 180 0 min 0 W/m -3,6 C -4,7 C 11,3 km/h (2 Bft)
16.02.2015 21:00 -0,1 C 79 % 1020,5 hPa 0,0 l/m 11,6 km/h (2 Bft) S 190 0 min 0 W/m -3,3 C -4,8 C 11,6 km/h (2 Bft)
16.02.2015 21:15 -0,2 C 79 % 1020,5 hPa 0,0 l/m 14,0 km/h (3 Bft) S 180 0 min 0 W/m -3,4 C -6,6 C 14,0 km/h (3 Bft)
16.02.2015 21:30 -0,2 C 79 % 1020,5 hPa 0,0 l/m 14,7 km/h (3 Bft) S-SW 195 0 min 0 W/m -3,4 C -7,0 C 14,7 km/h (3 Bft)
16.02.2015 21:45 -0,3 C 79 % 1020,5 hPa 0,0 l/m 14,8 km/h (3 Bft) S 180 0 min 0 W/m -3,5 C -7,2 C 14,8 km/h (3 Bft)
16.02.2015 22:00 -0,5 C 79 % 1020,5 hPa 0,0 l/m 10,2 km/h (2 Bft) S-SO 165 0 min 0 W/m -3,7 C -4,2 C 10,2 km/h (2 Bft)
16.02.2015 22:15 -0,8 C 78 % 1020,5 hPa 0,0 l/m 11,5 km/h (2 Bft) S 180 0 min 0 W/m -4,1 C -5,5 C 11,5 km/h (2 Bft)
16.02.2015 22:30 -0,7 C 79 % 1020,5 hPa 0,0 l/m 10,9 km/h (2 Bft) S-SO 165 0 min 0 W/m -3,9 C -5,0 C 10,9 km/h (2 Bft)
16.02.2015 22:45 -0,5 C 80 % 1020,5 hPa 0,0 l/m 12,8 km/h (3 Bft) S 185 0 min 0 W/m -3,5 C -6,1 C 12,8 km/h (3 Bft)
16.02.2015 23:00 -0,6 C 80 % 1020,5 hPa 0,0 l/m 15,0 km/h (3 Bft) S 180 0 min 0 W/m -3,6 C -7,7 C 15,0 km/h (3 Bft)
16.02.2015 23:15 -0,5 C 80 % 1020,5 hPa 0,0 l/m 12,5 km/h (2 Bft) S 185 0 min 0 W/m -3,5 C -5,9 C 12,5 km/h (2 Bft)
16.02.2015 23:30 -0,7 C 80 % 1020,5 hPa 0,0 l/m 13,1 km/h (3 Bft) S 170 0 min 0 W/m -3,7 C -6,6 C 13,1 km/h (3 Bft)
16.02.2015 23:45 -1,1 C 80 % 1020,5 hPa 0,0 l/m 11,3 km/h (2 Bft) S 180 0 min 0 W/m -4,1 C -5,7 C 11,3 km/h (2 Bft)
_ Min-Zeit 23:45 15:45 14:00 - 18:00 - - - - 15:45 04:45 18:00
Minimum _ -1,1 C 38 % 1018,5 hPa - 6,7 km/h (2 Bft) - - - - -9,3 C -10,1 C 6,7 km/h (2 Bft)
_ Max-Zeit 14:15 00:00 20:15 00:00 11:30 - - 00:00 00:00 01:00 18:00 11:30
Maximum _ 4,1 C 82 % 1020,5 hPa 0,0 l/m 27,6 km/h
S-SO (5 Bft)
- - 0 min 0 W/m -1,1 C 0,4 C 27,6 km/h
S-SO (5 Bft)
Durchschnitt _ 1,6 C 68 % 1019,5 hPa #0,0 l/m 17,9 km/h (3 Bft) S - #0 min. 0 W/m -4,0 C -6,1 C 17,9 km/h (3 Bft)
copyright by Holger Just